createdAt,value
2023-04-06T00:00:15.488Z,4.93
2023-04-06T00:05:07.866Z,7.30
2023-04-06T00:10:00.049Z,5.57
2023-04-06T00:14:52.092Z,6.13
2023-04-06T00:19:44.178Z,5.97
2023-04-06T00:24:36.396Z,6.63
2023-04-06T00:29:28.423Z,5.17
2023-04-06T00:34:20.770Z,5.60
2023-04-06T00:39:12.844Z,5.90
2023-04-06T00:44:05.001Z,5.00
2023-04-06T00:48:58.034Z,5.17
2023-04-06T00:53:50.766Z,5.00
2023-04-06T00:58:43.130Z,5.67
2023-04-06T01:03:35.932Z,6.30
2023-04-06T01:30:50.731Z,8.70
2023-04-06T01:36:02.114Z,4.57
2023-04-06T01:40:55.079Z,5.33
2023-04-06T01:45:49.791Z,8.10
2023-04-06T01:50:45.914Z,4.83
2023-04-06T01:55:44.991Z,9.87
2023-04-06T02:00:53.729Z,6.10
2023-04-06T02:05:46.475Z,5.27
2023-04-06T02:10:48.085Z,5.53
2023-04-06T02:15:52.119Z,5.53
2023-04-06T02:20:44.233Z,7.13
2023-04-06T02:25:38.760Z,5.50
2023-04-06T02:30:30.985Z,8.40
2023-04-06T02:35:23.078Z,5.23
2023-04-06T02:40:20.571Z,5.43
2023-04-06T02:45:12.679Z,5.70
2023-04-06T02:50:11.918Z,5.73
2023-04-06T02:55:11.972Z,8.23
2023-04-06T03:00:04.589Z,7.83
2023-04-06T03:05:04.882Z,6.30
2023-04-06T03:10:02.921Z,7.30
2023-04-06T03:14:57.175Z,8.53
2023-04-06T03:19:49.408Z,6.13
2023-04-06T03:24:42.249Z,5.73
2023-04-06T03:29:34.329Z,4.33
2023-04-06T03:34:26.820Z,8.13
2023-04-06T03:39:19.040Z,4.73
2023-04-06T03:44:11.405Z,7.47
2023-04-06T03:49:03.518Z,8.13
2023-04-06T03:53:55.768Z,8.43
2023-04-06T03:58:51.607Z,6.07
2023-04-06T04:03:46.354Z,10.67
2023-04-06T04:08:40.002Z,8.63
2023-04-06T04:13:33.436Z,6.40
2023-04-06T04:18:27.765Z,8.13
2023-04-06T04:23:19.796Z,6.70
2023-04-06T04:28:12.119Z,7.63
2023-04-06T04:33:06.507Z,8.43
2023-04-06T04:37:58.637Z,10.87
2023-04-06T04:42:52.320Z,7.67
2023-04-06T04:47:54.197Z,9.97
2023-04-06T04:52:49.446Z,8.67
2023-04-06T04:57:46.187Z,10.50
2023-04-06T05:02:38.782Z,11.43
2023-04-06T05:07:41.412Z,14.57
2023-04-06T05:12:39.254Z,16.03
2023-04-06T05:17:35.168Z,16.63
2023-04-06T05:22:27.938Z,10.20
2023-04-06T05:27:28.981Z,8.03
2023-04-06T05:32:23.168Z,8.90
2023-04-06T05:37:17.045Z,12.83
2023-04-06T05:42:09.523Z,10.03
2023-04-06T05:47:20.658Z,12.03
2023-04-06T05:52:18.882Z,12.13
2023-04-06T05:57:13.642Z,8.50
2023-04-06T06:02:05.954Z,8.87
2023-04-06T06:07:04.726Z,8.43
2023-04-06T06:12:08.763Z,9.33
2023-04-06T06:17:01.138Z,7.40
2023-04-06T06:21:54.268Z,12.20
2023-04-06T06:26:46.522Z,7.43
2023-04-06T06:31:39.914Z,7.57
2023-04-06T06:36:32.844Z,8.60
2023-04-06T06:41:27.204Z,6.43
2023-04-06T06:46:21.724Z,9.07
2023-04-06T06:51:13.884Z,15.17
2023-04-06T06:56:07.183Z,8.73
2023-04-06T07:01:00.306Z,8.37
2023-04-06T07:05:56.482Z,5.93
2023-04-06T07:10:53.447Z,7.93
2023-04-06T07:15:45.760Z,6.07
2023-04-06T07:20:38.055Z,6.73
2023-04-06T07:25:31.089Z,5.23
2023-04-06T07:30:23.490Z,5.03
2023-04-06T07:35:17.809Z,5.93
2023-04-06T07:40:10.418Z,9.93
2023-04-06T07:45:04.025Z,5.77
2023-04-06T07:49:58.221Z,10.33
2023-04-06T07:54:51.086Z,6.63
2023-04-06T07:59:43.265Z,32.63
2023-04-06T08:04:37.009Z,8.48
2023-04-06T08:09:29.190Z,7.28
2023-04-06T08:14:21.562Z,7.55
2023-04-06T08:19:13.738Z,7.43
2023-04-06T08:24:07.961Z,7.32
2023-04-06T08:29:00.291Z,13.10
2023-04-06T08:33:52.445Z,4.33
2023-04-06T08:38:45.010Z,6.77
2023-04-06T08:43:45.196Z,9.47
2023-04-06T08:48:39.144Z,4.13
2023-04-06T08:53:31.329Z,9.27
2023-04-06T08:58:37.302Z,4.17
2023-04-06T09:03:32.963Z,4.77
2023-04-06T09:08:26.287Z,3.33
2023-04-06T09:13:18.397Z,4.87
2023-04-06T09:18:10.687Z,18.53
2023-04-06T09:23:02.718Z,4.03
2023-04-06T09:28:07.906Z,3.83
2023-04-06T09:33:00.937Z,2.73
2023-04-06T09:37:54.397Z,3.05
2023-04-06T09:42:48.241Z,3.45
2023-04-06T09:47:43.840Z,3.28
2023-04-06T09:52:41.547Z,2.75
2023-04-06T09:57:51.436Z,2.63
2023-04-06T10:02:50.612Z,2.88
2023-04-06T10:07:59.010Z,2.60
2023-04-06T10:12:53.000Z,3.10
2023-04-06T10:17:46.019Z,3.70
2023-04-06T10:22:53.840Z,2.53
2023-04-06T10:27:45.897Z,2.63
2023-04-06T10:32:39.929Z,2.35
2023-04-06T10:37:54.415Z,2.40
2023-04-06T10:42:46.700Z,2.60
2023-04-06T10:47:42.308Z,4.30
2023-04-06T10:52:34.423Z,2.70
2023-04-06T10:57:31.966Z,2.20
2023-04-06T11:02:24.318Z,5.37
2023-04-06T11:07:25.011Z,3.70
2023-04-06T11:12:30.150Z,2.70
2023-04-06T11:17:29.680Z,3.77
2023-04-06T11:22:22.223Z,2.25
2023-04-06T11:27:17.233Z,3.00
2023-04-06T11:32:09.589Z,2.27
2023-04-06T11:37:07.025Z,3.30
2023-04-06T11:42:01.904Z,2.97
2023-04-06T11:46:55.040Z,3.43
2023-04-06T11:51:47.584Z,3.47
2023-04-06T11:56:39.687Z,3.43
2023-04-06T12:01:34.203Z,2.97
2023-04-06T12:06:29.094Z,3.40
2023-04-06T12:11:22.895Z,3.10
2023-04-06T12:16:15.661Z,2.80
2023-04-06T12:21:07.788Z,3.50
2023-04-06T12:25:59.925Z,5.13
2023-04-06T12:30:52.498Z,3.80
2023-04-06T12:35:44.568Z,3.77
2023-04-06T12:40:39.509Z,3.40
2023-04-06T12:45:32.539Z,3.03
2023-04-06T12:50:24.584Z,3.13
2023-04-06T12:55:17.032Z,3.53
2023-04-06T13:00:10.097Z,3.20
2023-04-06T13:05:03.730Z,3.43
2023-04-06T13:09:55.791Z,4.47
2023-04-06T13:14:52.098Z,6.20
2023-04-06T13:19:44.549Z,5.67
2023-04-06T13:24:36.664Z,5.00
2023-04-06T13:29:28.730Z,3.10
2023-04-06T13:34:20.736Z,3.17
2023-04-06T13:39:12.834Z,3.00
2023-04-06T13:44:04.883Z,2.90
2023-04-06T13:48:57.122Z,3.20
2023-04-06T13:53:51.384Z,3.00
2023-04-06T13:58:44.856Z,5.30
2023-04-06T14:03:37.907Z,3.27
2023-04-06T14:08:30.161Z,3.87
2023-04-06T14:13:22.182Z,2.73
2023-04-06T14:18:14.522Z,3.57
2023-04-06T14:23:06.629Z,3.30
2023-04-06T14:27:58.838Z,3.90
2023-04-06T14:32:50.909Z,3.33
2023-04-06T14:37:43.161Z,4.30
2023-04-06T14:42:36.996Z,4.10
2023-04-06T14:47:29.067Z,3.50
2023-04-06T14:52:21.056Z,5.37
2023-04-06T14:57:13.047Z,3.97
2023-04-06T15:02:05.132Z,3.13
2023-04-06T15:06:57.436Z,3.83
2023-04-06T15:11:49.495Z,2.93
2023-04-06T15:16:41.462Z,2.90
2023-04-06T15:21:33.749Z,4.03
2023-04-06T15:26:27.322Z,4.60
2023-04-06T15:31:36.635Z,3.90
2023-04-06T15:36:32.973Z,2.53
2023-04-06T15:41:26.920Z,2.97
2023-04-06T15:46:19.535Z,2.80
2023-04-06T15:51:11.714Z,3.13
2023-04-06T15:56:05.445Z,2.57
2023-04-06T16:00:58.164Z,2.73
2023-04-06T16:10:46.423Z,3.10
2023-04-06T16:15:38.608Z,3.27
2023-04-06T16:20:32.141Z,3.23
2023-04-06T16:25:24.284Z,4.97
2023-04-06T16:30:16.514Z,2.80
2023-04-06T16:35:08.998Z,4.03
2023-04-06T16:40:02.215Z,4.70
2023-04-06T16:44:54.258Z,5.07
2023-04-06T16:49:46.646Z,6.73
2023-04-06T16:54:38.696Z,4.93
2023-04-06T16:59:31.177Z,3.27
2023-04-06T17:04:23.615Z,3.27
2023-04-06T17:09:16.105Z,3.60
2023-04-06T17:14:09.412Z,2.60
2023-04-06T17:19:01.885Z,2.63
2023-04-06T17:23:54.480Z,3.73
2023-04-06T17:28:46.508Z,3.97
2023-04-06T17:33:42.098Z,2.30
2023-04-06T17:38:34.286Z,2.67
2023-04-06T17:43:26.302Z,3.47
2023-04-06T17:48:18.265Z,4.27
2023-04-06T17:53:10.625Z,2.30
2023-04-06T17:58:03.063Z,7.40
2023-04-06T18:02:55.958Z,3.77
2023-04-06T18:07:48.784Z,3.17
2023-04-06T18:12:40.957Z,3.13
2023-04-06T18:17:33.232Z,2.63
2023-04-06T18:22:25.403Z,4.10
2023-04-06T18:27:19.671Z,3.17
2023-04-06T18:32:12.270Z,12.00
2023-04-06T18:37:04.423Z,10.67
2023-04-06T18:41:56.698Z,6.30
2023-04-06T18:46:48.783Z,7.30
2023-04-06T18:51:42.992Z,8.20
2023-04-06T18:56:37.116Z,11.47
2023-04-06T19:01:30.959Z,14.60
2023-04-06T19:06:24.028Z,12.90
2023-04-06T19:11:16.599Z,6.70
2023-04-06T19:16:12.450Z,8.43
2023-04-06T19:21:05.179Z,6.73
2023-04-06T19:25:57.199Z,6.47
2023-04-06T19:30:49.245Z,5.60
2023-04-06T19:35:42.885Z,7.03
2023-04-06T19:40:34.862Z,10.60
2023-04-06T19:45:26.920Z,13.17
2023-04-06T19:50:19.002Z,6.50
2023-04-06T19:55:11.764Z,11.30
2023-04-06T20:00:04.988Z,42.17
2023-04-06T20:05:01.569Z,17.00
2023-04-06T20:09:53.653Z,38.87
2023-04-06T20:14:45.759Z,35.83
2023-04-06T20:19:37.826Z,15.20
2023-04-06T20:24:31.380Z,16.43
2023-04-06T20:29:24.939Z,13.17
2023-04-06T20:34:17.500Z,13.13
2023-04-06T20:39:09.731Z,13.80
2023-04-06T20:44:01.759Z,18.03
2023-04-06T20:48:53.892Z,12.00
2023-04-06T20:53:47.116Z,11.93
2023-04-06T20:58:39.207Z,12.37
2023-04-06T21:03:31.384Z,8.03
2023-04-06T21:08:25.002Z,7.33
2023-04-06T21:13:17.111Z,11.87
2023-04-06T21:18:09.235Z,15.03
2023-04-06T21:23:01.547Z,22.20
2023-04-06T21:27:53.588Z,36.97
2023-04-06T21:32:45.599Z,19.57
2023-04-06T21:37:37.651Z,13.53
2023-04-06T21:42:29.697Z,19.90
2023-04-06T21:47:21.682Z,16.23
2023-04-06T21:52:14.114Z,37.00
2023-04-06T21:57:06.187Z,25.73
2023-04-06T22:01:58.671Z,20.67
2023-04-06T22:06:50.916Z,15.40
2023-04-06T22:11:43.442Z,18.20
2023-04-06T22:16:35.422Z,16.03
2023-04-06T22:21:28.201Z,15.27
2023-04-06T22:26:20.280Z,11.73
2023-04-06T22:31:13.976Z,11.43
2023-04-06T22:36:06.332Z,10.30
2023-04-06T22:40:58.298Z,14.10
2023-04-06T22:45:52.662Z,13.93
2023-04-06T22:50:44.705Z,10.73
2023-04-06T22:55:40.424Z,9.43
2023-04-06T23:00:34.048Z,11.23
2023-04-06T23:05:26.164Z,10.97
2023-04-06T23:10:20.367Z,10.43
2023-04-06T23:15:12.767Z,10.23
2023-04-06T23:20:05.209Z,8.97
2023-04-06T23:24:57.242Z,12.80
2023-04-06T23:29:49.230Z,9.40
2023-04-06T23:34:41.418Z,8.40
2023-04-06T23:39:33.394Z,10.13
2023-04-06T23:44:29.133Z,11.10
2023-04-06T23:49:21.096Z,12.23
2023-04-06T23:54:13.119Z,13.27
2023-04-06T23:59:05.096Z,10.30
